Time;durP1;ratioP1;P1;durP2;ratioP2;P2;SDS_P1;SDS_P2;PMS_P1;PMS_P2;Temp;Humidity;BMP_temperature;BMP_pressure;BME280_temperature;BME280_humidity;BME280_pressure;Samples;Min_cycle;Max_cycle;Signal;HPM_P1;HPM_P2
2022/10/31 00:01:36;;;;;;;66.13;35.75;;;10.60;99.90;;;;;;4991201;28;20057;-63
2022/10/31 00:04:02;;;;;;;58.55;33.90;;;10.60;99.90;;;;;;4991038;28;20050;-62
2022/10/31 00:06:28;;;;;;;63.03;33.65;;;10.70;99.90;;;;;;4990965;28;20060;-59
2022/10/31 00:08:59;;;;;;;53.35;32.58;;;10.60;99.90;;;;;;4991135;28;20064;-61
2022/10/31 00:11:26;;;;;;;61.75;36.25;;;10.50;99.90;;;;;;4991022;28;20025;-59
2022/10/31 00:13:52;;;;;;;52.22;32.33;;;10.60;99.90;;;;;;4990929;28;20053;-62
2022/10/31 00:16:23;;;;;;;53.42;30.30;;;10.60;99.90;;;;;;4990964;28;20489;-65
2022/10/31 00:19:08;;;;;;;55.58;30.48;;;10.50;99.90;;;;;;4990861;28;20026;-60
2022/10/31 00:21:35;;;;;;;58.75;31.67;;;10.50;99.90;;;;;;4990709;28;20037;-59
2022/10/31 00:24:01;;;;;;;57.03;33.72;;;10.50;99.90;;;;;;4990765;28;20068;-63
2022/10/31 00:26:28;;;;;;;45.47;28.48;;;10.40;99.90;;;;;;4990655;28;20022;-60
2022/10/31 00:28:54;;;;;;;55.70;32.17;;;10.40;99.90;;;;;;4990650;28;20058;-57
2022/10/31 00:31:20;;;;;;;67.55;41.38;;;10.40;99.90;;;;;;4974705;28;20054;-61
2022/10/31 00:33:45;;;;;;;52.47;30.13;;;10.40;99.90;;;;;;4953637;28;20031;-58
2022/10/31 00:36:13;;;;;;;54.08;30.05;;;10.30;99.90;;;;;;4971210;28;20070;-58
2022/10/31 00:38:40;;;;;;;49.35;27.88;;;10.30;99.90;;;;;;4971203;28;20538;-62
2022/10/31 00:41:06;;;;;;;49.87;29.40;;;10.30;99.90;;;;;;4971391;28;20034;-61
2022/10/31 00:43:31;;;;;;;49.05;30.85;;;10.20;99.90;;;;;;4971067;28;20031;-60
2022/10/31 00:45:57;;;;;;;55.97;29.92;;;10.20;99.90;;;;;;4970875;28;20658;-61
2022/10/31 00:48:22;;;;;;;55.10;31.23;;;10.10;99.90;;;;;;4971315;28;20042;-61
2022/10/31 00:50:48;;;;;;;52.00;30.83;;;10.10;99.90;;;;;;4970869;28;20088;-59
2022/10/31 00:53:14;;;;;;;52.25;31.70;;;10.00;99.90;;;;;;4971233;28;20065;-59
2022/10/31 00:55:39;;;;;;;46.45;28.77;;;10.00;99.90;;;;;;4970368;28;20479;-59
2022/10/31 00:58:05;;;;;;;60.15;31.55;;;10.00;99.90;;;;;;4970698;28;20165;-62
2022/10/31 01:00:30;;;;;;;46.75;28.52;;;10.00;99.90;;;;;;4953373;28;20471;-62
2022/10/31 01:02:56;;;;;;;55.88;32.75;;;10.00;99.90;;;;;;4959250;28;20029;-60
2022/10/31 01:05:22;;;;;;;65.07;32.65;;;9.90;99.90;;;;;;4989920;28;20027;-61
2022/10/31 01:07:48;;;;;;;60.75;32.17;;;9.90;99.90;;;;;;4990652;28;20106;-60
2022/10/31 01:10:13;;;;;;;57.92;32.10;;;9.90;99.90;;;;;;4990334;28;20030;-61
2022/10/31 01:12:41;;;;;;;61.20;34.63;;;9.90;99.90;;;;;;4990600;28;20101;-62
2022/10/31 01:15:08;;;;;;;56.15;31.50;;;9.90;99.90;;;;;;4990413;28;20482;-59
2022/10/31 01:17:34;;;;;;;62.80;35.50;;;9.80;99.90;;;;;;4990384;28;20038;-57
2022/10/31 01:20:00;;;;;;;64.80;34.20;;;9.80;99.90;;;;;;4990508;28;20548;-58
2022/10/31 01:22:26;;;;;;;57.90;31.45;;;9.80;99.90;;;;;;4984429;28;20122;-59
2022/10/31 01:24:51;;;;;;;64.30;32.80;;;9.70;99.90;;;;;;4970915;28;20031;-59
2022/10/31 01:27:17;;;;;;;60.78;33.65;;;9.70;99.90;;;;;;4970830;28;20509;-59
2022/10/31 01:29:42;;;;;;;60.05;34.75;;;9.70;99.90;;;;;;4953658;28;20122;-62
2022/10/31 01:32:08;;;;;;;63.05;37.28;;;9.70;99.90;;;;;;4970884;28;20046;-60
2022/10/31 01:34:34;;;;;;;62.15;37.03;;;9.80;99.90;;;;;;4970769;28;20027;-60
2022/10/31 01:37:00;;;;;;;58.05;35.55;;;9.70;99.90;;;;;;4970896;28;20398;-63
2022/10/31 01:39:26;;;;;;;59.55;32.85;;;9.60;99.90;;;;;;4971021;28;20030;-61
2022/10/31 01:41:53;;;;;;;60.90;35.90;;;9.60;99.90;;;;;;4970835;28;20027;-61
2022/10/31 01:44:19;;;;;;;61.67;35.22;;;9.60;99.90;;;;;;4970662;28;20026;-62
2022/10/31 01:46:46;;;;;;;54.63;33.05;;;9.60;99.90;;;;;;4971088;28;20027;-57
2022/10/31 01:49:21;;;;;;;55.03;33.20;;;9.50;99.90;;;;;;4970893;28;20646;-59
2022/10/31 01:52:01;;;;;;;56.60;33.00;;;9.50;99.90;;;;;;4970848;28;20109;-59
2022/10/31 01:54:33;;;;;;;54.30;32.50;;;9.60;99.90;;;;;;4970652;28;20026;-61
2022/10/31 01:57:00;;;;;;;57.67;34.25;;;9.50;99.90;;;;;;4953331;28;20030;-59
2022/10/31 01:59:30;;;;;;;60.97;32.95;;;9.40;99.90;;;;;;4980360;28;20053;-58
2022/10/31 02:01:56;;;;;;;55.60;32.58;;;9.30;99.90;;;;;;4990165;28;20489;-61
2022/10/31 02:04:24;;;;;;;54.92;31.48;;;9.20;99.90;;;;;;4990022;28;20065;-60
2022/10/31 02:06:57;;;;;;;56.28;30.88;;;9.20;99.90;;;;;;4991488;28;20026;-59
2022/10/31 02:09:24;;;;;;;53.92;30.50;;;9.20;99.90;;;;;;4993660;28;20030;-62
2022/10/31 02:11:57;;;;;;;48.95;29.40;;;9.20;99.90;;;;;;4993587;28;20038;-59
2022/10/31 02:14:24;;;;;;;46.78;28.73;;;9.20;99.90;;;;;;4993773;28;20030;-64
2022/10/31 02:16:50;;;;;;;;;;;9.20;99.90;;;;;;4994126;28;20042;-60
2022/10/31 02:19:34;;;;;;;47.83;25.35;;;9.10;99.90;;;;;;4993495;28;19913;-61
2022/10/31 02:22:28;;;;;;;44.65;22.60;;;9.20;99.90;;;;;;4993687;28;20034;-58
2022/10/31 02:25:25;;;;;;;41.70;23.42;;;9.10;99.90;;;;;;4987553;28;20041;-58
2022/10/31 02:28:00;;;;;;;46.67;24.88;;;9.10;99.90;;;;;;4993395;28;20501;-61
2022/10/31 02:30:49;;;;;;;50.08;24.20;;;9.00;99.90;;;;;;4993464;28;20161;-58
2022/10/31 02:33:40;;;;;;;49.45;24.30;;;9.00;99.90;;;;;;4993233;28;20062;-64
2022/10/31 02:36:15;;;;;;;44.72;24.52;;;9.10;99.90;;;;;;4993181;28;20470;-61
2022/10/31 02:39:00;;;;;;;45.33;24.88;;;9.20;99.90;;;;;;4993465;28;20382;-62
2022/10/31 02:41:46;;;;;;;42.75;23.67;;;9.20;99.90;;;;;;4993308;28;20085;-62
2022/10/31 02:44:21;;;;;;;48.35;25.42;;;9.10;99.90;;;;;;4993027;28;20477;-60
2022/10/31 02:46:58;;;;;;;38.15;23.13;;;9.10;99.90;;;;;;4993093;28;20138;-61
2022/10/31 02:49:40;;;;;;;42.43;22.10;;;9.10;99.90;;;;;;4993104;28;20076;-61
2022/10/31 02:52:21;;;;;;;36.85;18.80;;;9.10;99.90;;;;;;4993284;28;20297;-62
2022/10/31 02:54:47;;;;;;;33.33;17.35;;;9.10;99.90;;;;;;4992906;28;20033;-61
2022/10/31 02:57:15;;;;;;;34.95;17.92;;;9.00;99.90;;;;;;4992525;28;20030;-62
2022/10/31 02:59:44;;;;;;;;;;;8.90;99.90;;;;;;4981923;28;20038;-61
2022/10/31 03:02:44;;;;;;;33.78;15.93;;;8.90;99.90;;;;;;4973321;28;19906;-62
2022/10/31 03:05:09;;;;;;;29.27;17.67;;;8.90;99.90;;;;;;4959601;28;20034;-60
2022/10/31 03:07:47;;;;;;;33.05;18.50;;;8.80;99.90;;;;;;4973321;28;20118;-58
2022/10/31 03:10:48;;;;;;;35.17;17.15;;;8.80;99.90;;;;;;4973237;28;20458;-63
2022/10/31 03:13:42;;;;;;;32.17;17.85;;;8.70;99.90;;;;;;4955917;28;20347;-64
2022/10/31 03:16:17;;;;;;;27.13;15.93;;;8.70;99.90;;;;;;4936176;28;20066;-59
2022/10/31 03:19:16;;;;;;;34.85;17.02;;;8.70;99.90;;;;;;4972513;28;20069;-64
2022/10/31 03:21:52;;;;;;;37.35;18.23;;;8.70;99.90;;;;;;4973064;28;20023;-58
2022/10/31 03:24:21;;;;;;;29.90;18.13;;;8.70;99.90;;;;;;4972778;28;20043;-61
2022/10/31 03:26:52;;;;;;;32.33;19.35;;;8.70;99.90;;;;;;4973053;28;20026;-59
2022/10/31 03:29:23;;;;;;;32.33;18.05;;;8.60;99.90;;;;;;4972965;28;20035;-60
2022/10/31 03:31:58;;;;;;;32.88;20.08;;;8.60;99.90;;;;;;4972867;28;20501;-60
2022/10/31 03:34:24;;;;;;;34.40;19.95;;;8.60;99.90;;;;;;4972669;28;20104;-62
2022/10/31 03:36:53;;;;;;;38.83;22.35;;;8.60;99.90;;;;;;4972552;28;20031;-60
2022/10/31 03:39:21;;;;;;;44.80;24.73;;;8.50;99.90;;;;;;4972648;28;20027;-64
2022/10/31 03:41:54;;;;;;;43.95;28.48;;;8.50;99.90;;;;;;4972657;28;20037;-61
2022/10/31 03:44:21;;;;;;;50.08;27.38;;;8.50;99.90;;;;;;4972433;28;20027;-58
2022/10/31 03:46:47;;;;;;;47.70;27.08;;;8.50;99.90;;;;;;4972597;28;20113;-61
2022/10/31 03:49:14;;;;;;;44.67;25.88;;;8.50;99.90;;;;;;4972202;28;20125;-62
2022/10/31 03:51:44;;;;;;;35.55;21.75;;;8.50;99.90;;;;;;4972560;28;20356;-60
2022/10/31 03:54:29;;;;;;;38.35;20.27;;;8.50;99.90;;;;;;4972382;28;20027;-60
2022/10/31 03:57:05;;;;;;;41.75;22.05;;;8.40;99.90;;;;;;4972235;28;20497;-57
2022/10/31 03:59:39;;;;;;;38.92;21.60;;;8.40;99.90;;;;;;4991833;28;20042;-58
2022/10/31 04:02:14;;;;;;;44.67;27.20;;;8.40;99.90;;;;;;5011211;28;20032;-62
2022/10/31 04:04:40;;;;;;;46.90;25.95;;;8.40;99.90;;;;;;5011117;28;20038;-57
2022/10/31 04:07:07;;;;;;;43.78;25.55;;;8.40;99.90;;;;;;5011453;28;20044;-58
2022/10/31 04:09:36;;;;;;;39.22;23.42;;;8.40;99.90;;;;;;5011008;28;20509;-58
2022/10/31 04:12:05;;;;;;;39.08;23.38;;;8.30;99.90;;;;;;5010794;28;20085;-64
2022/10/31 04:14:32;;;;;;;35.85;21.52;;;8.40;99.90;;;;;;4996937;28;20092;-58
2022/10/31 04:16:58;;;;;;;;;;;8.40;99.90;;;;;;4977554;28;20060;-59
2022/10/31 04:19:24;;;;;;;40.88;20.58;;;8.40;99.90;;;;;;5010917;28;19965;-58
2022/10/31 04:21:49;;;;;;;37.10;20.52;;;8.30;99.90;;;;;;5010792;28;20034;-59
2022/10/31 04:24:15;;;;;;;35.50;20.77;;;8.40;99.90;;;;;;5010880;28;20072;-60
2022/10/31 04:26:41;;;;;;;40.13;20.45;;;8.40;99.90;;;;;;5010924;28;20370;-64
2022/10/31 04:29:06;;;;;;;35.47;19.55;;;8.30;99.90;;;;;;5010496;28;20564;-60
2022/10/31 04:31:32;;;;;;;39.67;21.60;;;8.30;99.90;;;;;;5010165;28;20026;-61
2022/10/31 04:33:57;;;;;;;41.78;20.80;;;8.30;99.90;;;;;;5010955;28;20474;-63
2022/10/31 04:36:23;;;;;;;35.88;18.77;;;8.30;99.90;;;;;;5010569;28;20026;-58
2022/10/31 04:38:49;;;;;;;33.42;19.67;;;8.20;99.90;;;;;;5010490;28;20030;-57
2022/10/31 04:41:14;;;;;;;26.52;16.58;;;8.30;99.90;;;;;;5010630;28;20113;-60
2022/10/31 04:43:40;;;;;;;29.42;17.08;;;8.20;99.90;;;;;;5010443;28;20038;-63
2022/10/31 04:46:05;;;;;;;34.33;17.90;;;8.20;99.90;;;;;;5010521;28;20029;-63
2022/10/31 04:48:31;;;;;;;33.63;17.63;;;8.20;99.90;;;;;;5010418;28;20025;-62
2022/10/31 04:51:01;;;;;;;32.92;18.38;;;8.10;99.90;;;;;;5010226;28;20029;-62
2022/10/31 04:53:27;;;;;;;32.60;17.30;;;8.00;99.90;;;;;;5010477;28;20045;-62
2022/10/31 04:55:52;;;;;;;33.75;19.13;;;8.00;99.90;;;;;;5010238;28;20022;-61
2022/10/31 04:58:18;;;;;;;38.95;19.10;;;8.00;99.90;;;;;;5010255;28;20042;-60
2022/10/31 05:00:44;;;;;;;37.35;19.15;;;8.00;99.90;;;;;;5010389;28;20516;-62
2022/10/31 05:03:09;;;;;;;36.03;18.48;;;7.90;99.90;;;;;;5010326;28;20496;-58
2022/10/31 05:05:35;;;;;;;37.63;20.10;;;8.00;99.90;;;;;;5010242;28;20049;-59
2022/10/31 05:08:01;;;;;;;36.13;18.70;;;8.00;99.90;;;;;;5010201;28;20026;-58
2022/10/31 05:10:29;;;;;;;32.63;19.75;;;7.90;99.90;;;;;;5010311;28;20045;-60
2022/10/31 05:12:57;;;;;;;35.63;18.67;;;7.90;99.90;;;;;;5010151;28;20029;-57
2022/10/31 05:15:25;;;;;;;36.40;19.45;;;8.00;99.90;;;;;;5010398;28;20477;-62
2022/10/31 05:17:51;;;;;;;30.90;18.30;;;7.90;99.90;;;;;;5010238;28;20080;-61
2022/10/31 05:20:18;;;;;;;33.53;18.52;;;7.80;99.90;;;;;;5010497;28;20354;-64
2022/10/31 05:22:45;;;;;;;;;;;7.80;99.90;;;;;;5010943;28;20050;-60
2022/10/31 05:25:12;;;;;;;31.77;17.83;;;7.80;99.90;;;;;;5009982;28;19913;-57
2022/10/31 05:27:42;;;;;;;47.70;19.98;;;7.70;99.90;;;;;;5010320;28;20022;-59
2022/10/31 05:30:09;;;;;;;35.15;18.38;;;7.80;99.90;;;;;;5010061;28;20108;-61
2022/10/31 05:32:39;;;;;;;40.60;19.58;;;7.70;99.90;;;;;;5010064;28;20026;-59
2022/10/31 05:35:08;;;;;;;42.30;22.00;;;7.70;99.90;;;;;;5009978;28;20038;-61
2022/10/31 05:37:36;;;;;;;46.67;21.05;;;7.70;99.90;;;;;;5009795;28;20108;-60
2022/10/31 05:40:03;;;;;;;42.90;20.65;;;7.60;99.90;;;;;;5009857;28;20028;-63
2022/10/31 05:42:29;;;;;;;46.13;21.70;;;7.60;99.90;;;;;;5012756;28;20026;-58
2022/10/31 05:44:55;;;;;;;52.15;21.98;;;7.60;99.90;;;;;;5013860;28;20146;-58
2022/10/31 05:47:20;;;;;;;51.53;26.30;;;7.60;99.90;;;;;;5013682;28;20493;-64
2022/10/31 05:49:46;;;;;;;45.30;25.00;;;7.70;99.90;;;;;;4996454;28;20511;-63
2022/10/31 05:52:11;;;;;;;48.35;23.83;;;7.70;99.90;;;;;;5013229;28;20379;-61
2022/10/31 05:54:37;;;;;;;50.40;24.65;;;7.60;99.90;;;;;;4995951;28;20029;-62
2022/10/31 05:57:03;;;;;;;52.13;23.50;;;7.60;99.90;;;;;;5013512;28;20122;-63
2022/10/31 05:59:28;;;;;;;46.83;22.33;;;7.50;99.90;;;;;;5004668;28;20137;-62
2022/10/31 06:01:54;;;;;;;47.88;23.77;;;7.50;99.90;;;;;;4993955;28;20514;-58
2022/10/31 06:04:20;;;;;;;44.53;22.70;;;7.60;99.90;;;;;;4993679;28;20031;-58
2022/10/31 06:06:45;;;;;;;43.60;22.60;;;7.60;99.90;;;;;;4993921;28;20026;-59
2022/10/31 06:09:11;;;;;;;48.13;23.17;;;7.60;99.90;;;;;;4993545;28;20023;-62
2022/10/31 06:11:37;;;;;;;47.83;24.45;;;7.60;99.90;;;;;;4993743;28;20026;-61
2022/10/31 06:14:03;;;;;;;50.38;27.27;;;7.60;99.90;;;;;;4993696;28;20590;-64
2022/10/31 06:16:28;;;;;;;55.83;29.80;;;7.60;99.90;;;;;;4993426;28;20038;-62
2022/10/31 06:18:54;;;;;;;52.03;28.60;;;7.70;99.90;;;;;;4993674;28;20041;-62
2022/10/31 06:21:19;;;;;;;52.45;29.85;;;7.70;99.90;;;;;;4993286;28;20026;-60
2022/10/31 06:23:45;;;;;;;56.38;28.35;;;7.80;99.90;;;;;;4993412;28;20556;-63
2022/10/31 06:26:11;;;;;;;50.40;30.27;;;7.80;99.90;;;;;;4993567;28;20162;-64
2022/10/31 06:28:36;;;;;;;60.20;31.63;;;7.90;99.90;;;;;;4993674;28;20470;-58
2022/10/31 06:31:02;;;;;;;57.85;31.75;;;7.90;99.90;;;;;;4988635;28;20023;-57
2022/10/31 06:33:28;;;;;;;61.75;33.83;;;8.00;99.90;;;;;;4980651;28;20109;-59
2022/10/31 06:35:53;;;;;;;57.83;32.65;;;8.10;99.90;;;;;;4984266;28;20162;-62
2022/10/31 06:38:19;;;;;;;50.85;31.27;;;8.10;99.90;;;;;;4983041;28;20105;-62
2022/10/31 06:40:44;;;;;;;55.00;35.08;;;8.20;99.90;;;;;;4986984;28;20469;-61
2022/10/31 06:43:11;;;;;;;58.60;34.35;;;8.20;99.90;;;;;;4982291;28;20031;-63
2022/10/31 06:45:37;;;;;;;57.75;33.85;;;8.30;99.90;;;;;;4981445;28;20030;-62
2022/10/31 06:48:03;;;;;;;57.75;34.50;;;8.40;99.90;;;;;;4983010;28;20032;-61
2022/10/31 06:50:29;;;;;;;64.88;36.08;;;8.40;99.90;;;;;;4981371;28;20098;-58
2022/10/31 06:52:57;;;;;;;66.30;38.88;;;8.50;99.90;;;;;;4980492;28;20027;-59
2022/10/31 06:55:24;;;;;;;65.75;36.13;;;8.60;99.90;;;;;;4982812;28;20568;-59
2022/10/31 06:57:53;;;;;;;60.15;36.17;;;8.70;99.90;;;;;;4981446;28;20058;-63
2022/10/31 07:00:20;;;;;;;57.13;34.97;;;8.80;99.90;;;;;;4980808;28;20042;-61
2022/10/31 07:03:07;;;;;;;62.13;36.43;;;8.90;99.90;;;;;;4989057;28;20030;-59
2022/10/31 07:05:33;;;;;;;54.40;35.05;;;9.10;99.90;;;;;;4989538;28;20613;-65
2022/10/31 07:08:01;;;;;;;59.97;35.47;;;9.20;99.90;;;;;;4990898;28;20026;-59
2022/10/31 07:10:28;;;;;;;57.03;35.00;;;9.30;99.90;;;;;;4979550;28;20030;-64
2022/10/31 07:12:59;;;;;;;59.05;38.47;;;9.40;99.90;;;;;;4982467;28;20054;-63
2022/10/31 07:15:26;;;;;;;63.85;37.67;;;9.60;99.90;;;;;;4988973;28;21542;-62
2022/10/31 07:17:52;;;;;;;65.68;38.05;;;9.70;99.90;;;;;;4971237;28;20038;-60
2022/10/31 07:20:18;;;;;;;67.38;38.90;;;9.80;99.90;;;;;;4991134;28;20027;-60
2022/10/31 07:22:44;;;;;;;59.38;36.28;;;10.00;99.90;;;;;;4991067;28;20030;-61
2022/10/31 07:25:09;;;;;;;55.55;33.47;;;10.10;99.90;;;;;;4990827;28;20026;-62
2022/10/31 07:27:40;;;;;;;61.13;34.00;;;10.30;99.90;;;;;;4973453;28;20026;-60
2022/10/31 07:30:07;;;;;;;62.45;36.80;;;10.40;99.90;;;;;;4990909;28;20035;-62
2022/10/31 07:32:48;;;;;;;62.10;35.53;;;10.60;99.90;;;;;;4990829;28;20034;-62
2022/10/31 07:35:16;;;;;;;66.30;34.30;;;10.60;99.90;;;;;;4988862;28;20069;-63
2022/10/31 07:37:41;;;;;;;51.72;32.60;;;10.60;99.90;;;;;;4990577;28;20465;-63
2022/10/31 07:40:08;;;;;;;57.25;33.50;;;10.80;99.90;;;;;;4990604;28;20560;-61
2022/10/31 07:42:42;;;;;;;49.72;30.92;;;11.10;99.90;;;;;;4990637;28;20581;-59
2022/10/31 07:45:14;;;;;;;49.15;30.63;;;11.30;99.90;;;;;;4990571;28;20061;-64
2022/10/31 07:47:44;;;;;;;57.05;31.52;;;11.50;99.90;;;;;;4988658;28;20027;-62
2022/10/31 07:50:12;;;;;;;50.05;31.25;;;11.70;99.90;;;;;;4981427;28;20027;-61
2022/10/31 07:52:38;;;;;;;47.97;28.13;;;12.20;99.90;;;;;;4975973;28;20486;-61
2022/10/31 07:55:05;;;;;;;47.75;28.23;;;12.40;99.90;;;;;;4991382;28;20034;-61
2022/10/31 07:57:31;;;;;;;;;;;12.70;99.90;;;;;;4991639;28;20054;-63
2022/10/31 07:59:56;;;;;;;38.67;25.35;;;13.20;99.90;;;;;;4991552;28;20514;-60
2022/10/31 08:02:22;;;;;;;44.60;24.77;;;13.30;99.90;;;;;;4990857;28;20027;-61
2022/10/31 08:04:48;;;;;;;35.55;21.83;;;14.00;99.90;;;;;;4990804;28;20478;-64
2022/10/31 08:07:14;;;;;;;33.13;20.45;;;14.00;99.90;;;;;;4990459;28;20072;-62
2022/10/31 08:09:40;;;;;;;33.63;17.48;;;13.70;99.90;;;;;;4990008;28;20030;-61
2022/10/31 08:12:06;;;;;;;24.23;15.52;;;13.50;99.90;;;;;;4972125;28;20119;-64
2022/10/31 08:14:31;;;;;;;25.05;13.18;;;13.80;99.90;;;;;;4972004;28;20069;-63
2022/10/31 08:16:57;;;;;;;24.52;13.93;;;13.50;99.90;;;;;;4971556;28;20048;-60
2022/10/31 08:19:23;;;;;;;26.75;14.85;;;13.40;99.90;;;;;;4970412;28;20023;-59
2022/10/31 08:21:52;;;;;;;25.30;14.23;;;13.40;99.90;;;;;;4969885;28;20414;-59
2022/10/31 08:24:18;;;;;;;27.80;15.07;;;13.30;99.90;;;;;;4969354;28;20031;-63
2022/10/31 08:26:44;;;;;;;28.75;15.85;;;13.60;99.90;;;;;;4976368;28;20026;-60
2022/10/31 08:29:09;;;;;;;27.67;14.50;;;14.80;99.90;;;;;;4980546;28;20035;-60
2022/10/31 08:31:35;;;;;;;23.77;14.15;;;15.70;99.90;;;;;;4979211;28;20026;-61
2022/10/31 08:34:02;;;;;;;27.83;15.05;;;15.70;99.90;;;;;;4980834;28;20030;-61
2022/10/31 08:36:28;;;;;;;22.80;14.18;;;15.00;99.90;;;;;;4979268;28;20026;-63
2022/10/31 08:38:54;;;;;;;25.70;13.65;;;15.20;99.90;;;;;;4979846;28;20037;-61
2022/10/31 08:41:20;;;;;;;27.17;14.27;;;15.30;99.90;;;;;;4980305;28;20037;-61
2022/10/31 08:43:46;;;;;;;21.95;14.57;;;15.60;99.90;;;;;;4979962;28;20038;-59
2022/10/31 08:46:12;;;;;;;26.55;15.10;;;16.80;99.90;;;;;;4982818;28;20027;-59
2022/10/31 08:48:37;;;;;;;29.15;17.58;;;16.20;99.90;;;;;;4979781;28;20073;-60
2022/10/31 08:51:03;;;;;;;27.67;15.20;;;16.90;99.90;;;;;;4971491;28;20049;-59
2022/10/31 08:53:29;;;;;;;46.05;28.90;;;17.50;99.90;;;;;;4971010;28;20517;-59
2022/10/31 08:55:56;;;;;;;35.20;14.15;;;18.60;99.90;;;;;;4982434;28;20026;-61
2022/10/31 08:58:22;;;;;;;20.25;13.40;;;19.00;99.90;;;;;;4990365;28;20042;-61
2022/10/31 09:00:51;;;;;;;24.45;13.63;;;20.00;99.90;;;;;;4983080;28;20113;-61
2022/10/31 09:03:20;;;;;;;22.33;13.25;;;20.50;99.90;;;;;;4962833;28;20550;-61
2022/10/31 09:05:46;;;;;;;24.63;12.93;;;18.70;99.90;;;;;;4986647;28;20026;-60
2022/10/31 09:08:13;;;;;;;24.15;13.00;;;19.70;99.90;;;;;;4986645;28;20069;-59
2022/10/31 09:10:38;;;;;;;24.77;12.82;;;20.50;99.90;;;;;;4989260;28;20101;-60
2022/10/31 09:13:07;;;;;;;23.45;10.50;;;19.20;99.90;;;;;;4989252;28;20500;-61
2022/10/31 09:15:40;;;;;;;19.90;10.40;;;20.10;99.90;;;;;;4986495;28;20747;-59
2022/10/31 09:18:06;;;;;;;24.30;12.02;;;21.10;99.90;;;;;;4991171;28;20046;-61
2022/10/31 09:20:34;;;;;;;21.40;11.70;;;21.40;99.90;;;;;;4993201;28;20031;-56
2022/10/31 09:23:06;;;;;;;19.85;10.68;;;21.80;99.90;;;;;;4975544;28;20054;-59
2022/10/31 09:25:34;;;;;;;22.02;11.95;;;22.50;99.90;;;;;;4993300;28;20022;-55
2022/10/31 09:28:00;;;;;;;20.40;12.52;;;21.10;99.70;;;;;;4990535;28;20026;-56
2022/10/31 09:30:31;;;;;;;24.90;12.40;;;21.80;99.90;;;;;;4992861;28;20031;-60
2022/10/31 09:32:59;;;;;;;25.35;12.85;;;22.30;99.90;;;;;;4992505;28;20030;-59
2022/10/31 09:35:25;;;;;;;23.42;11.75;;;22.30;99.10;;;;;;4993262;28;20033;-56
2022/10/31 09:37:55;;;;;;;25.07;13.03;;;22.50;99.00;;;;;;4993162;28;20034;-59
2022/10/31 09:40:23;;;;;;;20.75;11.65;;;22.00;97.70;;;;;;4990344;28;20015;-60
2022/10/31 09:42:56;;;;;;;18.67;11.98;;;22.30;99.90;;;;;;4993010;28;20034;-60
2022/10/31 09:45:31;;;;;;;21.55;11.88;;;22.30;98.40;;;;;;4990389;28;20037;-59
2022/10/31 09:48:11;;;;;;;20.88;12.23;;;22.60;99.50;;;;;;4993033;28;20029;-57
2022/10/31 09:50:49;;;;;;;19.05;11.73;;;23.00;98.20;;;;;;4992417;28;20033;-60
2022/10/31 09:53:24;;;;;;;24.85;12.43;;;24.10;97.00;;;;;;4990720;28;20042;-60
2022/10/31 09:55:50;;;;;;;25.35;11.75;;;24.50;95.10;;;;;;4989911;28;20022;-59
2022/10/31 09:58:28;;;;;;;21.35;11.93;;;24.10;93.70;;;;;;4990240;28;20486;-59
2022/10/31 10:00:56;;;;;;;19.17;11.25;;;23.10;93.60;;;;;;4989376;28;20034;-59
2022/10/31 10:03:28;;;;;;;18.90;10.88;;;23.40;95.20;;;;;;4990534;28;20042;-59
2022/10/31 10:06:02;;;;;;;27.95;11.60;;;23.20;93.30;;;;;;4974609;28;20498;-58
2022/10/31 10:08:33;;;;;;;20.17;11.57;;;23.70;94.60;;;;;;4964917;28;20034;-61
2022/10/31 10:11:23;;;;;;;19.30;11.48;;;23.90;93.40;;;;;;4990695;28;20045;-60
2022/10/31 10:14:04;;;;;;;21.27;11.40;;;23.90;94.30;;;;;;4990435;28;20034;-61
2022/10/31 10:16:35;;;;;;;22.27;11.70;;;22.50;94.80;;;;;;4990915;28;20064;-60
2022/10/31 10:19:07;;;;;;;21.95;12.32;;;22.30;94.10;;;;;;4990597;28;20141;-59
2022/10/31 10:21:45;;;;;;;17.73;11.15;;;23.10;96.00;;;;;;4991100;28;20029;-57
2022/10/31 10:24:29;;;;;;;18.33;10.70;;;22.60;96.00;;;;;;4990628;28;20381;-59
2022/10/31 10:27:20;;;;;;;17.85;10.07;;;23.30;96.70;;;;;;4990918;28;20085;-59
2022/10/31 10:30:13;;;;;;;18.85;10.25;;;23.20;94.90;;;;;;4991045;28;20034;-59
2022/10/31 10:33:02;;;;;;;23.33;12.10;;;23.20;94.30;;;;;;4989203;28;20026;-60
2022/10/31 10:35:34;;;;;;;20.88;11.25;;;23.20;93.90;;;;;;4989454;28;20027;-59
2022/10/31 10:38:14;;;;;;;23.20;11.77;;;23.10;93.90;;;;;;4989815;28;20038;-61
2022/10/31 10:40:39;;;;;;;19.08;11.07;;;23.70;93.00;;;;;;4991004;28;20029;-60
2022/10/31 10:49:09;;;;;;;21.42;11.73;;;24.80;93.70;;;;;;4973805;28;20121;-55
2022/10/31 10:51:45;;;;;;;27.10;13.38;;;24.70;91.20;;;;;;4992698;28;20023;-57
2022/10/31 10:54:20;;;;;;;23.42;11.13;;;24.80;90.70;;;;;;4990278;28;20082;-60
2022/10/31 10:57:00;;;;;;;26.25;13.15;;;24.90;91.00;;;;;;4989452;28;20034;-55
2022/10/31 10:59:26;;;;;;;21.10;12.10;;;24.80;89.80;;;;;;4991870;28;20097;-60
2022/10/31 11:01:52;;;;;;;21.63;11.17;;;23.20;91.00;;;;;;4992339;28;20019;-58
2022/10/31 11:04:33;;;;;;;23.17;11.90;;;23.70;91.90;;;;;;4991961;28;20280;-56
2022/10/31 11:07:06;;;;;;;25.73;11.82;;;23.60;92.90;;;;;;4989805;28;20485;-60
2022/10/31 11:09:33;;;;;;;20.77;11.55;;;24.10;91.80;;;;;;4991380;28;20054;-58
2022/10/31 11:12:05;;;;;;;22.33;10.95;;;24.40;92.10;;;;;;4991331;28;20139;-61
2022/10/31 11:14:32;;;;;;;18.65;11.90;;;24.70;91.30;;;;;;4991019;28;20054;-60
2022/10/31 11:17:15;;;;;;;21.55;10.40;;;24.80;91.40;;;;;;4990945;28;20110;-58
2022/10/31 11:19:41;;;;;;;19.80;9.88;;;25.00;90.30;;;;;;4989955;28;20042;-61
2022/10/31 11:22:14;;;;;;;21.10;8.98;;;24.20;90.00;;;;;;4990213;28;20026;-58
2022/10/31 11:24:41;;;;;;;29.83;10.57;;;24.10;87.70;;;;;;4991760;28;20426;-60
2022/10/31 11:27:21;;;;;;;15.77;8.90;;;24.40;89.20;;;;;;4991294;28;20050;-60
2022/10/31 11:29:46;;;;;;;20.27;9.23;;;24.60;89.50;;;;;;4990091;28;20106;-58
2022/10/31 11:32:22;;;;;;;25.58;11.68;;;23.30;86.40;;;;;;4989894;28;20113;-60
2022/10/31 11:34:51;;;;;;;20.50;10.40;;;22.50;89.20;;;;;;4989129;28;20392;-57
2022/10/31 11:37:26;;;;;;;23.98;11.45;;;23.20;88.10;;;;;;4989196;28;20035;-59
2022/10/31 11:40:01;;;;;;;25.13;9.93;;;23.40;88.00;;;;;;4988891;28;20401;-60
2022/10/31 11:42:34;;;;;;;25.67;10.70;;;23.70;90.00;;;;;;4989498;28;20018;-59
2022/10/31 11:45:15;;;;;;;23.73;10.38;;;23.50;87.30;;;;;;4991222;28;20132;-57
2022/10/31 11:47:46;;;;;;;20.40;10.20;;;23.60;87.70;;;;;;4988665;28;20085;-57
2022/10/31 11:50:25;;;;;;;24.73;10.82;;;23.60;87.10;;;;;;4988459;28;20635;-58
2022/10/31 11:52:53;;;;;;;23.20;9.75;;;23.50;86.40;;;;;;4988551;28;20037;-57
2022/10/31 11:55:31;;;;;;;25.30;11.05;;;23.20;86.20;;;;;;4990709;28;20061;-57
2022/10/31 11:57:57;;;;;;;;;;;23.50;86.30;;;;;;4987724;28;20050;-59
2022/10/31 12:00:38;;;;;;;31.75;10.00;;;23.50;88.50;;;;;;4988726;28;19921;-60
2022/10/31 12:03:12;;;;;;;25.63;10.52;;;23.60;85.40;;;;;;4987232;28;20029;-60
2022/10/31 12:05:39;;;;;;;21.90;8.95;;;23.60;88.40;;;;;;4988094;28;20418;-58
2022/10/31 12:08:09;;;;;;;30.13;9.75;;;23.80;86.10;;;;;;4988624;28;20529;-59
2022/10/31 12:10:55;;;;;;;24.70;8.93;;;23.10;84.90;;;;;;4987276;28;20030;-60
2022/10/31 12:13:32;;;;;;;15.65;7.40;;;23.40;85.50;;;;;;4988986;28;20469;-60
2022/10/31 12:16:09;;;;;;;21.02;9.90;;;25.10;81.00;;;;;;4990601;28;20623;-59
2022/10/31 12:18:53;;;;;;;18.73;8.18;;;26.30;77.40;;;;;;4990016;28;20375;-62
2022/10/31 12:21:34;;;;;;;19.77;8.73;;;25.10;73.40;;;;;;4990186;28;20030;-59
2022/10/31 12:24:03;;;;;;;13.73;7.72;;;26.10;76.80;;;;;;4974110;28;20106;-60
2022/10/31 12:26:52;;;;;;;13.30;7.40;;;25.80;75.00;;;;;;4951569;28;20029;-59
2022/10/31 12:29:33;;;;;;;15.40;7.05;;;25.20;76.60;;;;;;4970837;28;20378;-59
2022/10/31 12:32:32;;;;;;;16.70;6.78;;;24.50;78.50;;;;;;4970841;28;20031;-60
2022/10/31 12:35:19;;;;;;;18.80;7.80;;;24.60;80.20;;;;;;4970941;28;20027;-57
2022/10/31 12:37:57;;;;;;;22.75;6.40;;;24.60;80.60;;;;;;4970529;28;20390;-60
2022/10/31 12:40:49;;;;;;;15.45;7.50;;;24.30;79.50;;;;;;4969998;28;20553;-60
2022/10/31 12:43:28;;;;;;;15.13;7.43;;;24.40;79.90;;;;;;4969235;28;20053;-59
2022/10/31 12:45:59;;;;;;;20.17;9.05;;;24.00;80.30;;;;;;4968984;28;20372;-58
2022/10/31 12:48:24;;;;;;;18.35;8.13;;;23.50;80.30;;;;;;4969254;28;20034;-57
2022/10/31 12:51:02;;;;;;;15.02;6.82;;;23.60;82.00;;;;;;4968156;28;20371;-57
2022/10/31 12:53:59;;;;;;;10.88;7.00;;;23.70;83.80;;;;;;4969442;28;20817;-59
2022/10/31 12:56:53;;;;;;;20.98;7.55;;;23.70;81.40;;;;;;4970462;28;20039;-61
2022/10/31 12:59:18;;;;;;;17.45;6.97;;;23.40;81.70;;;;;;4953228;28;20080;-60